Abington, Indiana
Current Conditions -  °F | °C
As of 12:53 PM on Friday 24 Oct 2014 (Local Time) from KMIE Reporting Station
Clear Clear  
Wind Chill: 61°   Ceiling: Unl
Heat Index: 61°   Visibility: 10mi
Dew Point: 43°   Wind: 6mph
Humidity: 52%   Direction: 220°SW
Pressure: 30.08"   Gusts: NA
Location:  39.7862°N, 85.0229°W
Report Text: KMIE 241653Z 22005KT 10SM CLR 16/06 A3008 RMK AO2 SLP185 T01610061
Loading
Personal Weather Stations






























Interactive Weather Map
Tropical Storm Tracking
New forecast layout! Learn more

10-Day Weather Forecast

Advertisements
Track Severe Weather on mobile